Time;durP1;ratioP1;P1;durP2;ratioP2;P2;SDS_P1;SDS_P2;PMS_P1;PMS_P2;Temp;Humidity;BMP_temperature;BMP_pressure;BME280_temperature;BME280_humidity;BME280_pressure;Samples;Min_cycle;Max_cycle;Signal;HPM_P1;HPM_P2
2022/01/27 00:03:36;;;;;;;12.98;7.13;;;;;;;;;;4975477;28;20125;-73
2022/01/27 00:06:08;;;;;;;13.82;7.00;;;;;;;;;;4974872;28;20128;-72
2022/01/27 00:11:10;;;;;;;11.93;5.88;;;;;;;;;;4975306;28;20148;-72
2022/01/27 00:13:49;;;;;;;12.02;6.20;;;;;;;;;;4978188;28;20556;-73
2022/01/27 00:16:30;;;;;;;11.05;5.80;;;;;;;;;;4977948;28;20048;-72
2022/01/27 00:19:11;;;;;;;12.70;5.70;;;;;;;;;;4972889;28;20039;-72
2022/01/27 00:21:39;;;;;;;12.07;6.18;;;;;;;;;;4981566;28;20040;-73
2022/01/27 00:24:07;;;;;;;11.38;5.60;;;;;;;;;;4974356;28;20028;-73
2022/01/27 00:26:33;;;;;;;13.50;6.30;;;;;;;;;;4977090;28;20649;-73
2022/01/27 00:29:00;;;;;;;14.23;6.70;;;;;;;;;;4970433;28;20038;-72
2022/01/27 00:31:27;;;;;;;13.27;6.10;;;;;;;;;;4973966;28;20083;-73
2022/01/27 00:33:55;;;;;;;13.05;6.32;;;;;;;;;;4964325;28;20068;-72
2022/01/27 00:36:22;;;;;;;12.40;6.10;;;;;;;;;;4978578;28;20133;-72
2022/01/27 00:38:51;;;;;;;10.77;5.70;;;;;;;;;;4971375;28;20037;-72
2022/01/27 00:41:19;;;;;;;11.80;5.43;;;;;;;;;;4975623;28;20038;-72
2022/01/27 00:43:49;;;;;;;11.95;5.45;;;;;;;;;;4969425;28;20026;-71
2022/01/27 00:46:17;;;;;;;10.68;5.10;;;;;;;;;;4978250;28;20034;-72
2022/01/27 00:48:45;;;;;;;11.57;5.45;;;;;;;;;;4979842;28;20514;-72
2022/01/27 00:51:20;;;;;;;11.60;5.38;;;;;;;;;;4976564;28;20077;-73
2022/01/27 00:53:54;;;;;;;11.40;5.07;;;;;;;;;;4967547;28;20030;-72
2022/01/27 00:56:41;;;;;;;10.57;5.00;;;;;;;;;;4982059;28;20495;-72
2022/01/27 01:02:04;;;;;;;11.63;4.93;;;;;;;;;;4976564;28;20053;-72
2022/01/27 01:04:35;;;;;;;11.45;4.35;;;;;;;;;;4979076;28;20030;-71
2022/01/27 01:07:02;;;;;;;11.40;4.70;;;;;;;;;;4978252;28;20030;-72
2022/01/27 01:10:18;;;;;;;10.05;4.55;;;;;;;;;;4981537;28;20121;-72
2022/01/27 01:15:14;;;;;;;10.23;4.38;;;;;;;;;;4981763;28;20768;-72
2022/01/27 01:34:46;;;;;;;8.98;3.70;;;;;;;;;;4908657;29;20566;-72
2022/01/27 01:37:17;;;;;;;9.05;3.53;;;;;;;;;;4902385;29;20314;-73
2022/01/27 01:39:44;;;;;;;10.48;4.00;;;;;;;;;;4905740;29;20039;-71
2022/01/27 01:42:12;;;;;;;8.90;3.60;;;;;;;;;;4905164;29;20058;-72
2022/01/27 01:44:40;;;;;;;9.73;3.90;;;;;;;;;;4905566;29;20127;-72
2022/01/27 01:47:07;;;;;;;10.10;4.25;;;;;;;;;;4890194;29;20130;-72
2022/01/27 01:49:35;;;;;;;9.23;3.67;;;;;;;;;;4890482;29;20146;-72
2022/01/27 01:52:08;;;;;;;9.63;4.00;;;;;;;;;;4899789;29;20610;-72
2022/01/27 01:54:35;;;;;;;9.55;3.78;;;;;;;;;;4892020;29;20095;-73
2022/01/27 01:57:01;;;;;;;9.90;4.03;;;;;;;;;;4900716;28;21021;-73
2022/01/27 01:59:27;;;;;;;10.63;3.95;;;;;;;;;;4941037;28;20118;-73
2022/01/27 02:01:54;;;;;;;10.13;4.18;;;;;;;;;;4962228;28;20181;-73
2022/01/27 02:04:20;;;;;;;10.73;3.90;;;;;;;;;;4964063;28;20038;-72
2022/01/27 02:06:54;;;;;;;10.68;4.63;;;;;;;;;;4966849;28;20069;-73
2022/01/27 02:09:29;;;;;;;10.32;4.47;;;;;;;;;;4947802;28;20030;-72
2022/01/27 02:20:11;;;;;;;10.07;4.60;;;;;;;;;;4979249;28;20045;-72
2022/01/27 02:22:37;;;;;;;10.50;4.60;;;;;;;;;;4986206;28;20136;-72
2022/01/27 02:25:04;;;;;;;11.13;4.70;;;;;;;;;;4977782;28;20026;-73
2022/01/27 02:27:30;;;;;;;10.75;4.65;;;;;;;;;;4983986;28;20477;-72
2022/01/27 02:29:56;;;;;;;9.82;4.32;;;;;;;;;;4976532;28;20247;-73
2022/01/27 02:32:24;;;;;;;10.05;4.55;;;;;;;;;;4982286;28;20120;-73
2022/01/27 02:34:51;;;;;;;10.95;4.45;;;;;;;;;;4977409;28;20034;-72
2022/01/27 02:37:17;;;;;;;10.05;4.40;;;;;;;;;;4983423;28;21246;-72
2022/01/27 02:39:44;;;;;;;9.18;4.15;;;;;;;;;;4981170;28;20152;-72
2022/01/27 02:42:39;;;;;;;9.93;4.03;;;;;;;;;;4981633;28;20047;-73
2022/01/27 02:45:36;;;;;;;10.48;4.00;;;;;;;;;;4960691;28;20658;-72
2022/01/27 02:48:05;;;;;;;10.45;4.40;;;;;;;;;;4935186;28;20468;-72
2022/01/27 02:50:31;;;;;;;10.77;3.85;;;;;;;;;;4943301;28;20022;-73
2022/01/27 02:52:58;;;;;;;11.85;4.25;;;;;;;;;;4943285;28;20026;-72
2022/01/27 02:55:24;;;;;;;9.38;3.67;;;;;;;;;;4959056;28;20038;-73
2022/01/27 02:57:51;;;;;;;10.73;3.90;;;;;;;;;;4945581;28;20038;-73
2022/01/27 03:00:18;;;;;;;9.35;3.90;;;;;;;;;;4946820;28;20047;-72
2022/01/27 03:02:44;;;;;;;10.27;4.35;;;;;;;;;;4946447;28;20919;-73
2022/01/27 03:05:11;;;;;;;8.60;3.78;;;;;;;;;;4962335;28;20034;-73
2022/01/27 03:07:38;;;;;;;9.57;3.92;;;;;;;;;;4963203;28;20038;-72
2022/01/27 03:10:05;;;;;;;9.98;4.00;;;;;;;;;;4958206;28;20096;-72
2022/01/27 03:12:33;;;;;;;9.38;3.95;;;;;;;;;;4965307;28;20042;-72
2022/01/27 03:15:00;;;;;;;8.98;3.55;;;;;;;;;;4936849;28;20679;-72
2022/01/27 03:17:28;;;;;;;10.02;4.18;;;;;;;;;;4965320;28;20038;-72
2022/01/27 03:19:55;;;;;;;8.52;3.72;;;;;;;;;;4942603;28;20414;-72
2022/01/27 03:22:22;;;;;;;9.48;4.07;;;;;;;;;;4977896;28;20038;-72
2022/01/27 03:24:48;;;;;;;10.07;4.20;;;;;;;;;;4982708;28;20462;-73
2022/01/27 03:27:22;;;;;;;10.52;4.20;;;;;;;;;;4982635;28;20058;-72
2022/01/27 03:30:02;;;;;;;8.80;3.88;;;;;;;;;;4977910;28;20045;-72
2022/01/27 03:32:29;;;;;;;8.27;3.30;;;;;;;;;;4984151;28;20030;-72
2022/01/27 03:34:55;;;;;;;8.15;3.40;;;;;;;;;;4976082;28;20035;-72
2022/01/27 03:37:21;;;;;;;8.00;3.22;;;;;;;;;;4982002;28;20026;-72
2022/01/27 03:39:48;;;;;;;8.43;3.13;;;;;;;;;;4980244;28;20876;-73
2022/01/27 03:42:15;;;;;;;9.85;3.17;;;;;;;;;;4981058;28;20111;-73
2022/01/27 03:44:42;;;;;;;7.78;3.22;;;;;;;;;;4982695;28;20040;-73
2022/01/27 03:47:09;;;;;;;7.78;2.83;;;;;;;;;;4976851;28;20717;-72
2022/01/27 03:49:36;;;;;;;7.35;2.85;;;;;;;;;;4981895;28;20030;-72
2022/01/27 03:52:03;;;;;;;7.28;2.90;;;;;;;;;;4979694;28;20030;-73
2022/01/27 03:54:30;;;;;;;7.40;3.15;;;;;;;;;;4983430;28;20512;-73
2022/01/27 03:56:57;;;;;;;8.23;2.78;;;;;;;;;;4977167;28;20042;-72
2022/01/27 03:59:26;;;;;;;6.47;2.50;;;;;;;;;;4979428;28;20041;-72
2022/01/27 04:01:54;;;;;;;7.00;2.70;;;;;;;;;;4973425;28;20066;-73
2022/01/27 04:04:21;;;;;;;8.30;3.05;;;;;;;;;;4981047;28;20164;-73
2022/01/27 04:06:51;;;;;;;8.15;3.58;;;;;;;;;;4981028;28;20468;-74
2022/01/27 04:09:18;;;;;;;8.60;3.83;;;;;;;;;;4981188;28;20048;-73
2022/01/27 04:11:44;;;;;;;8.95;3.42;;;;;;;;;;4983089;28;20064;-72
2022/01/27 04:14:12;;;;;;;7.32;2.95;;;;;;;;;;4978175;28;20029;-72
2022/01/27 04:16:39;;;;;;;7.97;3.17;;;;;;;;;;4980221;28;20878;-73
2022/01/27 04:19:06;;;;;;;8.35;2.90;;;;;;;;;;4991027;28;20038;-73
2022/01/27 04:21:33;;;;;;;7.40;2.70;;;;;;;;;;4978217;28;20054;-72
2022/01/27 04:24:00;;;;;;;7.63;2.80;;;;;;;;;;4977939;28;20030;-73
2022/01/27 04:26:36;;;;;;;7.43;2.78;;;;;;;;;;4984398;28;20683;-74
2022/01/27 04:29:02;;;;;;;7.65;2.75;;;;;;;;;;4974833;28;20030;-73
2022/01/27 04:31:29;;;;;;;;;;;;;;;;;;4983304;28;20026;-73
2022/01/27 04:33:56;;;;;;;8.23;3.13;;;;;;;;;;4972969;28;19913;-74
2022/01/27 04:36:30;;;;;;;7.30;2.70;;;;;;;;;;4979492;28;20139;-72
2022/01/27 04:41:54;;;;;;;7.90;2.97;;;;;;;;;;4981121;28;20081;-73
2022/01/27 04:47:29;;;;;;;7.88;2.60;;;;;;;;;;4998082;28;20582;-73
2022/01/27 04:50:05;;;;;;;6.55;2.35;;;;;;;;;;5003448;28;20061;-73
2022/01/27 04:52:36;;;;;;;7.43;2.50;;;;;;;;;;5005147;28;20143;-73
2022/01/27 04:55:09;;;;;;;7.68;2.50;;;;;;;;;;5006078;28;20411;-73
2022/01/27 04:57:39;;;;;;;6.53;2.10;;;;;;;;;;5005745;28;20044;-75
2022/01/27 05:00:07;;;;;;;8.80;2.53;;;;;;;;;;4997877;28;20177;-72
2022/01/27 05:02:44;;;;;;;9.98;3.80;;;;;;;;;;4988227;28;20021;-72
2022/01/27 05:05:11;;;;;;;10.23;3.90;;;;;;;;;;4984504;28;20433;-72
2022/01/27 05:07:38;;;;;;;10.02;3.78;;;;;;;;;;5003192;28;20049;-72
2022/01/27 05:10:17;;;;;;;9.60;3.28;;;;;;;;;;4986956;28;20751;-73
2022/01/27 05:12:48;;;;;;;7.50;2.25;;;;;;;;;;5005239;28;20041;-72
2022/01/27 05:15:14;;;;;;;6.00;2.40;;;;;;;;;;5001062;28;20038;-72
2022/01/27 05:17:41;;;;;;;7.57;2.30;;;;;;;;;;4989775;28;20137;-72
2022/01/27 05:20:08;;;;;;;6.80;2.20;;;;;;;;;;4996859;28;20021;-73
2022/01/27 05:22:34;;;;;;;5.10;1.70;;;;;;;;;;5007953;28;20076;-72
2022/01/27 05:25:01;;;;;;;6.00;2.03;;;;;;;;;;4988583;28;20244;-72
2022/01/27 05:27:27;;;;;;;5.57;2.00;;;;;;;;;;4985021;28;20026;-72
2022/01/27 05:29:54;;;;;;;6.15;2.20;;;;;;;;;;5000608;28;20051;-72
2022/01/27 05:32:21;;;;;;;5.95;1.98;;;;;;;;;;5004297;28;20025;-72
2022/01/27 05:34:48;;;;;;;5.80;1.90;;;;;;;;;;5001307;28;20064;-72
2022/01/27 05:37:14;;;;;;;;;;;;;;;;;;5006033;28;20431;-72
2022/01/27 05:39:40;;;;;;;6.43;2.53;;;;;;;;;;5002127;28;19921;-73
2022/01/27 05:42:07;;;;;;;6.38;2.38;;;;;;;;;;5000395;28;20029;-72
2022/01/27 05:44:34;;;;;;;5.80;2.22;;;;;;;;;;5001718;28;20116;-72
2022/01/27 05:47:00;;;;;;;7.28;2.45;;;;;;;;;;4995153;28;20052;-72
2022/01/27 05:49:27;;;;;;;7.57;2.88;;;;;;;;;;5005479;28;20029;-73
2022/01/27 05:51:55;;;;;;;8.18;3.17;;;;;;;;;;4999034;28;20707;-73
2022/01/27 05:54:22;;;;;;;9.05;3.17;;;;;;;;;;4985745;28;20037;-72
2022/01/27 05:56:50;;;;;;;7.75;2.92;;;;;;;;;;5004109;28;20136;-72
2022/01/27 05:59:18;;;;;;;7.38;2.67;;;;;;;;;;4985567;28;20119;-72
2022/01/27 06:01:45;;;;;;;6.15;2.30;;;;;;;;;;5005222;28;20503;-72
2022/01/27 06:04:12;;;;;;;6.30;2.30;;;;;;;;;;5003822;28;20039;-72
2022/01/27 06:06:38;;;;;;;8.20;2.85;;;;;;;;;;5004316;28;20018;-73
2022/01/27 06:09:07;;;;;;;6.28;2.00;;;;;;;;;;5006229;28;20353;-72
2022/01/27 06:11:34;;;;;;;6.07;2.08;;;;;;;;;;4990620;28;20045;-72
2022/01/27 06:14:01;;;;;;;6.28;2.22;;;;;;;;;;5003901;28;20043;-71
2022/01/27 06:16:28;;;;;;;8.52;3.10;;;;;;;;;;5007683;28;20110;-72
2022/01/27 06:18:55;;;;;;;7.43;3.10;;;;;;;;;;5001545;28;20029;-73
2022/01/27 06:21:22;;;;;;;6.93;2.55;;;;;;;;;;5009483;28;20017;-72
2022/01/27 06:23:49;;;;;;;7.00;2.20;;;;;;;;;;5009681;28;20871;-72
2022/01/27 06:26:15;;;;;;;6.47;1.95;;;;;;;;;;4989887;28;20029;-73
2022/01/27 06:28:42;;;;;;;5.82;2.25;;;;;;;;;;5005533;28;20022;-72
2022/01/27 06:31:09;;;;;;;6.60;2.38;;;;;;;;;;4989985;28;20055;-72
2022/01/27 06:33:37;;;;;;;7.50;2.70;;;;;;;;;;4992227;28;20032;-74
2022/01/27 06:36:04;;;;;;;6.90;2.22;;;;;;;;;;4989120;28;20607;-73
2022/01/27 06:38:30;;;;;;;6.05;1.98;;;;;;;;;;4998807;28;20041;-72
2022/01/27 06:40:57;;;;;;;7.05;2.30;;;;;;;;;;4985587;28;20022;-73
2022/01/27 06:43:24;;;;;;;7.57;2.30;;;;;;;;;;4987872;28;20109;-73
2022/01/27 06:45:51;;;;;;;6.40;2.15;;;;;;;;;;4979328;28;20030;-72
2022/01/27 06:48:18;;;;;;;5.90;2.30;;;;;;;;;;4986623;28;20037;-73
2022/01/27 06:50:48;;;;;;;6.75;2.58;;;;;;;;;;4986021;28;20120;-73
2022/01/27 06:53:14;;;;;;;6.95;2.42;;;;;;;;;;4983683;28;20030;-73
2022/01/27 06:55:41;;;;;;;7.10;2.60;;;;;;;;;;4994047;28;20037;-72
2022/01/27 06:58:08;;;;;;;7.88;2.50;;;;;;;;;;4981987;28;20030;-73
2022/01/27 07:00:35;;;;;;;7.10;2.60;;;;;;;;;;4988867;28;20045;-73
2022/01/27 07:03:02;;;;;;;7.40;2.65;;;;;;;;;;4985938;28;20359;-72
2022/01/27 07:05:31;;;;;;;8.02;2.40;;;;;;;;;;4985607;28;20038;-72
2022/01/27 07:08:00;;;;;;;7.72;2.78;;;;;;;;;;4985029;28;20030;-73
2022/01/27 07:10:26;;;;;;;7.95;2.80;;;;;;;;;;4992371;28;20140;-72
2022/01/27 07:12:54;;;;;;;7.90;3.03;;;;;;;;;;4982846;28;20049;-73
2022/01/27 07:15:21;;;;;;;9.38;3.00;;;;;;;;;;4991128;28;20029;-72
2022/01/27 07:17:48;;;;;;;7.22;2.83;;;;;;;;;;5007883;28;20029;-72
2022/01/27 07:20:17;;;;;;;7.32;2.70;;;;;;;;;;4986223;28;20184;-72
2022/01/27 07:22:43;;;;;;;7.47;2.83;;;;;;;;;;5003259;28;20429;-72
2022/01/27 07:25:10;;;;;;;8.98;3.08;;;;;;;;;;4997816;28;20025;-72
2022/01/27 07:27:37;;;;;;;12.02;4.13;;;;;;;;;;4990538;28;20522;-72
2022/01/27 07:30:05;;;;;;;13.48;5.78;;;;;;;;;;5006633;28;20537;-72
2022/01/27 07:32:32;;;;;;;14.18;5.93;;;;;;;;;;5001337;28;20064;-72
2022/01/27 07:34:59;;;;;;;13.35;5.30;;;;;;;;;;5002763;28;20036;-72
2022/01/27 07:37:26;;;;;;;11.93;4.80;;;;;;;;;;5005544;28;20041;-73
2022/01/27 07:39:52;;;;;;;13.68;5.15;;;;;;;;;;4999420;28;20030;-72
2022/01/27 07:42:19;;;;;;;13.48;4.85;;;;;;;;;;4990279;28;20484;-72
2022/01/27 07:44:45;;;;;;;12.80;5.03;;;;;;;;;;4986945;28;20040;-73
2022/01/27 07:47:13;;;;;;;12.23;5.18;;;;;;;;;;5000289;28;20038;-73
2022/01/27 07:49:40;;;;;;;11.48;4.90;;;;;;;;;;4985907;28;20215;-73
2022/01/27 07:52:07;;;;;;;12.57;5.50;;;;;;;;;;4998989;28;20879;-72
2022/01/27 07:54:34;;;;;;;10.95;4.57;;;;;;;;;;5005617;28;20056;-73
2022/01/27 07:57:00;;;;;;;14.80;5.72;;;;;;;;;;4986133;28;20032;-73
2022/01/27 07:59:27;;;;;;;13.60;5.57;;;;;;;;;;5000303;28;20114;-74
2022/01/27 08:01:54;;;;;;;11.90;5.38;;;;;;;;;;5000004;28;20021;-74
2022/01/27 08:04:20;;;;;;;;;;;;;;;;;;5002763;28;20032;-73
2022/01/27 08:06:47;;;;;;;23.63;11.75;;;;;;;;;;5003847;28;20486;-72
2022/01/27 08:09:14;;;;;;;22.20;13.07;;;;;;;;;;5002786;28;20030;-72
2022/01/27 08:11:40;;;;;;;20.15;10.65;;;;;;;;;;4986803;28;20037;-73
2022/01/27 08:14:07;;;;;;;19.77;9.73;;;;;;;;;;5002171;28;20029;-73
2022/01/27 08:16:34;;;;;;;17.90;8.30;;;;;;;;;;4984639;28;20041;-73
2022/01/27 08:19:01;;;;;;;13.15;6.90;;;;;;;;;;4995004;28;20599;-72
2022/01/27 08:21:28;;;;;;;14.30;6.22;;;;;;;;;;5006321;28;20502;-73
2022/01/27 08:23:56;;;;;;;12.65;6.82;;;;;;;;;;4982043;28;20025;-73
2022/01/27 08:26:45;;;;;;;14.32;7.45;;;;;;;;;;5004651;28;20044;-71
2022/01/27 08:29:28;;;;;;;19.85;9.20;;;;;;;;;;5002223;28;20033;-73
2022/01/27 08:32:02;;;;;;;17.42;9.52;;;;;;;;;;4997312;28;20040;-72
2022/01/27 08:34:34;;;;;;;24.63;11.98;;;;;;;;;;5001813;28;20026;-73
2022/01/27 08:37:04;;;;;;;24.42;13.27;;;;;;;;;;5002766;28;20049;-72
2022/01/27 08:39:30;;;;;;;25.13;13.82;;;;;;;;;;5001512;28;20041;-73
2022/01/27 08:41:57;;;;;;;27.90;16.25;;;;;;;;;;4982721;28;20025;-72
2022/01/27 08:44:24;;;;;;;32.50;19.83;;;;;;;;;;4971345;28;20111;-73
2022/01/27 08:46:52;;;;;;;35.67;22.77;;;;;;;;;;4982378;28;20759;-73
2022/01/27 08:49:21;;;;;;;37.03;23.40;;;;;;;;;;4985868;28;20056;-74
2022/01/27 08:51:49;;;;;;;34.75;20.60;;;;;;;;;;5005163;28;20564;-72
2022/01/27 08:54:15;;;;;;;30.25;19.55;;;;;;;;;;5001269;28;20029;-72
2022/01/27 08:56:42;;;;;;;32.45;19.20;;;;;;;;;;5005821;28;20034;-72
2022/01/27 08:59:10;;;;;;;32.30;19.92;;;;;;;;;;4981907;28;20044;-72
2022/01/27 09:01:38;;;;;;;29.02;17.98;;;;;;;;;;5003470;28;20025;-72
2022/01/27 09:04:05;;;;;;;25.77;16.30;;;;;;;;;;4986686;28;20117;-72
2022/01/27 09:06:31;;;;;;;22.95;13.02;;;;;;;;;;4969597;28;20413;-72
2022/01/27 09:08:58;;;;;;;;;;;;;;;;;;4982923;28;20037;-72
2022/01/27 09:11:25;;;;;;;17.02;10.00;;;;;;;;;;4996160;28;20430;-71
2022/01/27 09:13:53;;;;;;;17.88;9.50;;;;;;;;;;4997885;28;20548;-72
2022/01/27 09:16:23;;;;;;;14.82;8.50;;;;;;;;;;4988997;28;20063;-72
2022/01/27 09:18:50;;;;;;;14.40;7.35;;;;;;;;;;4998262;28;20041;-72
2022/01/27 09:21:17;;;;;;;13.70;6.95;;;;;;;;;;5003517;28;20025;-72
2022/01/27 09:23:47;;;;;;;13.55;6.50;;;;;;;;;;5006491;28;20025;-72
2022/01/27 09:26:52;;;;;;;14.52;7.43;;;;;;;;;;5001328;28;20035;-72
2022/01/27 09:29:10;;;;;;;12.20;5.88;;;;;;;;;;4993024;28;21255;-72
2022/01/27 09:31:37;;;;;;;12.45;6.53;;;;;;;;;;5008137;28;20170;-72
2022/01/27 09:34:04;;;;;;;17.55;6.72;;;;;;;;;;5002376;28;20028;-73
2022/01/27 09:36:32;;;;;;;13.52;5.68;;;;;;;;;;5008404;28;20114;-73
2022/01/27 09:38:58;;;;;;;15.68;6.18;;;;;;;;;;5003043;28;20063;-72
2022/01/27 09:41:27;;;;;;;20.88;9.95;;;;;;;;;;4989406;28;20484;-72
2022/01/27 09:43:55;;;;;;;17.55;9.65;;;;;;;;;;5001368;28;20025;-72
2022/01/27 09:46:23;;;;;;;20.45;9.98;;;;;;;;;;5006948;28;20029;-72
2022/01/27 09:48:52;;;;;;;18.20;10.18;;;;;;;;;;4998198;28;20040;-73
2022/01/27 09:51:41;;;;;;;24.13;9.23;;;;;;;;;;5007953;28;20107;-72
2022/01/27 09:54:17;;;;;;;18.48;8.48;;;;;;;;;;5002138;28;20494;-72
2022/01/27 09:56:44;;;;;;;17.90;8.05;;;;;;;;;;5002694;28;20030;-72
2022/01/27 09:59:10;;;;;;;17.15;7.55;;;;;;;;;;4983410;28;20045;-72
2022/01/27 10:01:38;;;;;;;17.77;7.47;;;;;;;;;;4983293;28;20025;-73
2022/01/27 10:04:06;;;;;;;17.17;6.70;;;;;;;;;;4980659;28;20034;-73
2022/01/27 10:06:35;;;;;;;12.75;4.88;;;;;;;;;;5000895;28;20029;-72
2022/01/27 10:09:30;;;;;;;13.27;4.40;;;;;;;;;;4984366;28;20552;-73
2022/01/27 10:12:01;;;;;;;8.50;3.45;;;;;;;;;;4996515;28;20038;-71
2022/01/27 10:14:36;;;;;;;10.93;3.20;;;;;;;;;;5002287;28;20182;-72
2022/01/27 10:17:04;;;;;;;9.18;3.13;;;;;;;;;;5002061;28;20599;-72
2022/01/27 10:19:35;;;;;;;6.88;2.72;;;;;;;;;;5006305;28;20073;-72
2022/01/27 10:22:05;;;;;;;7.95;2.90;;;;;;;;;;5000810;28;20120;-72
2022/01/27 10:24:33;;;;;;;9.50;2.97;;;;;;;;;;4982723;28;20107;-72
2022/01/27 10:27:45;;;;;;;7.28;2.63;;;;;;;;;;4985534;28;20033;-72
2022/01/27 10:33:00;;;;;;;7.93;3.00;;;;;;;;;;5001077;28;20037;-72
2022/01/27 10:35:27;;;;;;;8.40;3.17;;;;;;;;;;5001663;28;20126;-72
2022/01/27 10:38:12;;;;;;;7.50;2.75;;;;;;;;;;4973505;28;20029;-71
2022/01/27 10:40:39;;;;;;;7.00;2.70;;;;;;;;;;5006264;28;20610;-72
2022/01/27 10:43:08;;;;;;;7.15;2.65;;;;;;;;;;5002273;28;20116;-72
2022/01/27 10:45:35;;;;;;;9.75;2.80;;;;;;;;;;5002624;28;20133;-72
2022/01/27 10:48:25;;;;;;;6.55;2.33;;;;;;;;;;4999603;28;20030;-73
2022/01/27 10:51:16;;;;;;;7.55;2.20;;;;;;;;;;4982826;28;20121;-72
2022/01/27 10:56:30;;;;;;;6.13;2.10;;;;;;;;;;4996521;28;20617;-72
2022/01/27 10:58:57;;;;;;;6.43;2.08;;;;;;;;;;4993767;28;20486;-72
2022/01/27 11:01:33;;;;;;;6.15;2.10;;;;;;;;;;4984664;28;20044;-73
2022/01/27 11:04:01;;;;;;;5.82;2.20;;;;;;;;;;4992931;28;20062;-71
2022/01/27 11:06:31;;;;;;;6.70;2.22;;;;;;;;;;4979958;28;20025;-72
2022/01/27 11:09:01;;;;;;;7.32;2.47;;;;;;;;;;4991702;28;20034;-73
2022/01/27 11:11:32;;;;;;;6.28;2.35;;;;;;;;;;4980301;28;20788;-73
2022/01/27 11:14:04;;;;;;;8.00;2.53;;;;;;;;;;4980549;28;20119;-72
2022/01/27 11:16:37;;;;;;;7.22;2.60;;;;;;;;;;4988101;28;20059;-72
2022/01/27 11:22:27;;;;;;;8.60;3.40;;;;;;;;;;5000753;28;20083;-72
2022/01/27 11:25:19;;;;;;;7.25;3.10;;;;;;;;;;5001746;28;20053;-72
2022/01/27 11:27:32;;;;;;;8.98;3.35;;;;;;;;;;4998167;28;20033;-72
2022/01/27 11:30:27;;;;;;;8.40;3.92;;;;;;;;;;4995723;28;20150;-72
2022/01/27 11:33:02;;;;;;;8.90;4.03;;;;;;;;;;4942372;28;20955;-72
2022/01/27 11:35:28;;;;;;;8.50;4.00;;;;;;;;;;4939387;28;20057;-72
2022/01/27 11:37:56;;;;;;;8.88;4.10;;;;;;;;;;4938204;28;20038;-72
2022/01/27 11:40:33;;;;;;;9.35;4.15;;;;;;;;;;4942340;28;20581;-72
2022/01/27 11:42:59;;;;;;;8.55;3.80;;;;;;;;;;4929471;28;20059;-72
2022/01/27 11:45:26;;;;;;;10.18;4.13;;;;;;;;;;4930169;28;20069;-72
2022/01/27 11:47:53;;;;;;;8.70;4.03;;;;;;;;;;4942115;28;20044;-73
2022/01/27 11:50:32;;;;;;;8.75;4.10;;;;;;;;;;4939705;28;20585;-73
2022/01/27 11:52:58;;;;;;;7.57;3.00;;;;;;;;;;4925166;28;20042;-73
2022/01/27 11:55:25;;;;;;;7.05;3.38;;;;;;;;;;4941494;28;20561;-73
2022/01/27 11:57:53;;;;;;;8.20;3.50;;;;;;;;;;4916544;28;20041;-73
2022/01/27 12:00:20;;;;;;;8.05;3.55;;;;;;;;;;4936220;28;20027;-73
2022/01/27 12:02:57;;;;;;;8.43;3.50;;;;;;;;;;4930632;28;20124;-73
2022/01/27 12:05:23;;;;;;;10.75;4.20;;;;;;;;;;4935455;28;20025;-73
2022/01/27 12:08:08;;;;;;;8.65;3.33;;;;;;;;;;4925924;28;20132;-73
2022/01/27 12:10:49;;;;;;;6.78;2.53;;;;;;;;;;4977338;28;20033;-73
2022/01/27 12:13:34;;;;;;;7.55;2.88;;;;;;;;;;4977947;28;20029;-73
2022/01/27 12:16:26;;;;;;;7.88;2.40;;;;;;;;;;4998115;28;20040;-73
2022/01/27 12:19:03;;;;;;;6.53;2.28;;;;;;;;;;4993910;28;20049;-73
2022/01/27 12:21:42;;;;;;;7.05;2.50;;;;;;;;;;4997773;28;20037;-73
2022/01/27 12:24:11;;;;;;;7.57;2.85;;;;;;;;;;4977936;28;20034;-73
2022/01/27 12:26:48;;;;;;;6.97;2.80;;;;;;;;;;4984778;28;20030;-73
2022/01/27 12:29:34;;;;;;;8.80;3.97;;;;;;;;;;4998568;28;20870;-73
2022/01/27 12:32:03;;;;;;;8.60;3.60;;;;;;;;;;4979163;28;20092;-73
2022/01/27 12:34:30;;;;;;;7.45;3.38;;;;;;;;;;4999192;28;20030;-73
2022/01/27 12:37:10;;;;;;;8.40;3.33;;;;;;;;;;4978855;28;20060;-73
2022/01/27 12:39:44;;;;;;;9.05;3.28;;;;;;;;;;4995569;28;20045;-73
2022/01/27 12:42:14;;;;;;;7.63;3.00;;;;;;;;;;4994300;28;20140;-73
2022/01/27 12:44:42;;;;;;;7.60;2.20;;;;;;;;;;4998024;28;20022;-73
2022/01/27 12:47:11;;;;;;;6.00;2.10;;;;;;;;;;4981858;28;20713;-73
2022/01/27 12:49:42;;;;;;;6.93;2.10;;;;;;;;;;4999020;28;20056;-73
2022/01/27 12:52:10;;;;;;;6.93;2.30;;;;;;;;;;4975013;28;20040;-73
2022/01/27 12:54:37;;;;;;;7.30;2.45;;;;;;;;;;4998707;28;20565;-73
2022/01/27 12:57:04;;;;;;;7.38;2.40;;;;;;;;;;4979700;28;20030;-73
2022/01/27 12:59:31;;;;;;;6.28;2.00;;;;;;;;;;4980916;28;20048;-73
2022/01/27 13:02:07;;;;;;;5.90;2.28;;;;;;;;;;4992492;28;20022;-73
2022/01/27 13:04:46;;;;;;;4.95;1.85;;;;;;;;;;5000518;28;20037;-73
2022/01/27 13:07:12;;;;;;;6.93;2.10;;;;;;;;;;4995591;28;20053;-73
2022/01/27 13:10:03;;;;;;;5.43;1.83;;;;;;;;;;4978176;28;20074;-72
2022/01/27 13:12:36;;;;;;;7.10;2.17;;;;;;;;;;4997490;28;20618;-72
2022/01/27 13:15:13;;;;;;;5.78;2.05;;;;;;;;;;4976821;28;20194;-73
2022/01/27 13:18:11;;;;;;;4.65;1.88;;;;;;;;;;4984815;28;20041;-73
2022/01/27 13:20:39;;;;;;;6.60;2.25;;;;;;;;;;4984264;28;20140;-73
2022/01/27 13:23:24;;;;;;;6.18;2.30;;;;;;;;;;4993899;28;20029;-72
2022/01/27 13:26:05;;;;;;;6.40;2.20;;;;;;;;;;4997038;28;21003;-72
2022/01/27 13:28:35;;;;;;;6.28;2.08;;;;;;;;;;4991022;28;20046;-73
2022/01/27 13:31:10;;;;;;;7.40;2.30;;;;;;;;;;4994887;28;20588;-72
2022/01/27 13:33:41;;;;;;;6.18;2.22;;;;;;;;;;4981799;28;21855;-73
2022/01/27 13:36:20;;;;;;;5.80;1.98;;;;;;;;;;4994677;28;20052;-72
2022/01/27 13:42:10;;;;;;;4.50;1.50;;;;;;;;;;4902536;28;20652;-74
2022/01/27 13:44:51;;;;;;;4.72;1.40;;;;;;;;;;4905770;28;20074;-73
2022/01/27 13:47:23;;;;;;;4.35;1.40;;;;;;;;;;4904985;28;20043;-73
2022/01/27 13:50:09;;;;;;;5.03;1.50;;;;;;;;;;4901739;28;20100;-72
2022/01/27 13:52:46;;;;;;;5.97;1.52;;;;;;;;;;4908446;29;20039;-72
2022/01/27 13:55:22;;;;;;;5.15;1.63;;;;;;;;;;4900145;28;20054;-72
2022/01/27 13:58:04;;;;;;;5.13;1.50;;;;;;;;;;4905188;28;20063;-72
2022/01/27 14:00:39;;;;;;;4.80;1.23;;;;;;;;;;4906349;28;20050;-72
2022/01/27 14:03:18;;;;;;;3.60;1.30;;;;;;;;;;4898756;28;20229;-73
2022/01/27 14:06:05;;;;;;;5.35;1.30;;;;;;;;;;4903728;28;20051;-73
2022/01/27 14:08:44;;;;;;;3.72;1.20;;;;;;;;;;4904847;28;20950;-73
2022/01/27 14:11:16;;;;;;;4.25;1.35;;;;;;;;;;4901538;28;20039;-73
2022/01/27 14:13:52;;;;;;;4.38;1.58;;;;;;;;;;4902105;28;20028;-72
2022/01/27 14:16:24;;;;;;;5.05;2.08;;;;;;;;;;4904978;28;20165;-73
2022/01/27 14:18:51;;;;;;;3.30;1.48;;;;;;;;;;4953401;28;20056;-72
2022/01/27 14:21:25;;;;;;;4.43;1.33;;;;;;;;;;4999305;28;20033;-73
2022/01/27 14:28:57;;;;;;;4.50;1.55;;;;;;;;;;4993185;28;20872;-73
2022/01/27 14:31:24;;;;;;;5.47;1.95;;;;;;;;;;5000617;28;20587;-72
2022/01/27 14:33:50;;;;;;;4.53;1.80;;;;;;;;;;4981265;28;20167;-73
2022/01/27 14:36:17;;;;;;;5.55;1.80;;;;;;;;;;4998805;28;20041;-73
2022/01/27 14:38:43;;;;;;;6.60;1.95;;;;;;;;;;4999678;28;20029;-73
2022/01/27 14:41:10;;;;;;;5.22;1.80;;;;;;;;;;4990930;28;20080;-72
2022/01/27 14:43:39;;;;;;;5.00;1.42;;;;;;;;;;4985116;28;20109;-72
2022/01/27 14:46:06;;;;;;;5.28;1.55;;;;;;;;;;4983015;28;20509;-72
2022/01/27 14:48:34;;;;;;;5.05;1.40;;;;;;;;;;4999163;28;20029;-72
2022/01/27 14:51:01;;;;;;;4.63;1.33;;;;;;;;;;4995222;28;20034;-71
2022/01/27 14:53:27;;;;;;;4.25;1.27;;;;;;;;;;4998247;28;20014;-72
2022/01/27 14:55:53;;;;;;;4.38;1.20;;;;;;;;;;4994804;28;20032;-72
2022/01/27 14:58:19;;;;;;;4.13;1.17;;;;;;;;;;5001917;28;20472;-71
2022/01/27 15:00:46;;;;;;;5.35;2.00;;;;;;;;;;4995261;28;20034;-71
2022/01/27 15:03:12;;;;;;;4.60;1.52;;;;;;;;;;4995000;28;20104;-71
2022/01/27 15:05:38;;;;;;;6.50;2.50;;;;;;;;;;4987362;28;20037;-72
2022/01/27 15:08:04;;;;;;;5.65;1.98;;;;;;;;;;4999233;28;20036;-72
2022/01/27 15:10:31;;;;;;;5.18;1.65;;;;;;;;;;4985567;28;20029;-71
2022/01/27 15:12:57;;;;;;;6.97;2.00;;;;;;;;;;4984602;28;20022;-71
2022/01/27 15:20:57;;;;;;;5.80;2.08;;;;;;;;;;4995436;28;20071;-71
2022/01/27 15:23:27;;;;;;;6.20;2.22;;;;;;;;;;4998164;28;20029;-71
2022/01/27 15:25:55;;;;;;;6.95;2.13;;;;;;;;;;4997363;28;20029;-71
2022/01/27 15:28:21;;;;;;;6.75;2.00;;;;;;;;;;4981412;28;20807;-71
2022/01/27 15:30:47;;;;;;;6.03;1.98;;;;;;;;;;5001781;28;20108;-71
2022/01/27 15:33:14;;;;;;;6.10;2.50;;;;;;;;;;4995581;28;20029;-71
2022/01/27 15:35:43;;;;;;;11.32;6.00;;;;;;;;;;5000961;28;20065;-71
2022/01/27 15:38:09;;;;;;;9.75;5.95;;;;;;;;;;5000050;28;20047;-71
2022/01/27 15:40:38;;;;;;;6.45;2.50;;;;;;;;;;5001575;28;20029;-71
2022/01/27 15:43:04;;;;;;;6.75;2.20;;;;;;;;;;4998254;28;20064;-71
2022/01/27 15:45:32;;;;;;;8.07;2.60;;;;;;;;;;5001396;28;20071;-70
2022/01/27 15:47:58;;;;;;;5.57;1.63;;;;;;;;;;4996090;28;20409;-71
2022/01/27 15:50:26;;;;;;;4.32;1.48;;;;;;;;;;5001626;28;20054;-71
2022/01/27 15:52:53;;;;;;;8.73;4.65;;;;;;;;;;4980255;28;20542;-71
2022/01/27 15:55:20;;;;;;;8.95;4.07;;;;;;;;;;4997571;28;20686;-71
2022/01/27 15:57:46;;;;;;;9.73;4.78;;;;;;;;;;4999499;28;20073;-71
2022/01/27 16:00:12;;;;;;;10.93;4.60;;;;;;;;;;4993206;28;20029;-71